Terminal Aerodrome Forecast
Issued by NWS Memphis, TN

Home | Current Version | Previous Version | Text Only | Print | Product List | Glossary On
Versions: 1 2 3 4 5 6 7 8 9 10 11 12
784
FTUS44 KMEG 121122
TAFJBR
TAF
KJBR 121122Z 1212/1312 36005KT P6SM FEW090 SCT250
     FM121600 35010KT P6SM SCT035 SCT090
      TEMPO 1220/1223 BKN035
     FM130100 01012G18KT P6SM FEW035 FEW120=

USA.gov is the U.S. government's official web portal to all federal, state and local government web resources and services.